METAR Data
IDs: Format: Raw Decoded Include TAF

Data at: 1704 UTC 03 Dec 2021

EGPF 031650Z AUTO 16006KT 140V270 9999 FEW019 07/04 Q0995